F/V Berriz Patxiku — ECES — position and weather

sailwx.info

Track history (hours):
 
Tides and Currents Weather Stations Pressure Air Temp Water Temp Dewpoint Dewpoint Depression Visibility Wind Speed Wind Dir Waves Ship Positions

F/V Berriz Patxiku

Last reported at 2017-May-23 01:00 UTC. Time now 2017-May-23 01:09 UTC.
Position N 43°60' W 001°53'.

Length 30 m.

Type: Fishing. MMSI: 224106260.

Date/timePositionNaut miles runAvg speedWind from/ knotsBaromVisibWave heightAir tempDewpointWater temp
2017-May-23 01:00N 43°60' W 001°53'9 8.4
2017-May-22 23:59N 44°07' W 001°59'  
2017-May-17 12:13N 43°18' W 002°12'0 0.0
2017-May-17 11:57N 43°18' W 002°12'12 9.7
2017-May-17 10:42N 43°30' W 002°11'310.8
2017-May-17 10:28N 43°33' W 002°11'610.9
2017-May-17 09:54N 43°39' W 002°10'410.7
2017-May-17 09:30N 43°43' W 002°10'510.7
2017-May-17 09:00N 43°49' W 002°09'610.9
2017-May-17 08:29N 43°54' W 002°09'511.0
2017-May-17 08:00N 43°60' W 002°08'611.0
2017-May-17 07:30N 44°05' W 002°08'511.0
2017-May-17 07:00N 44°11' W 002°08'4 6.4
2017-May-17 06:22N 44°15' W 002°08'0 0.6
2017-May-17 06:00N 44°15' W 002°08'0 0.6
2017-May-17 05:29N 44°15' W 002°08'0 0.7
2017-May-17 05:00N 44°15' W 002°09'1 1.6
2017-May-17 04:31N 44°14' W 002°08'10 4.9
2017-May-17 02:24N 44°04' W 002°12'3 8.6
2017-May-17 02:00N 44°01' W 002°14'8 2.8
2017-May-16 23:12N 43°53' W 002°11'0 0.1
2017-May-16 23:00N 43°54' W 002°11'0 0.2
2017-May-16 22:02N 43°54' W 002°11'0 0.2
2017-May-16 21:55N 43°54' W 002°11'0 0.4
2017-May-16 21:29N 43°54' W 002°11'10 7.4
2017-May-16 20:12N 43°51' W 001°59'1 1.8
2017-May-16 19:39N 43°51' W 001°58'0 0.5
2017-May-16 19:24N 43°51' W 001°57'0 0.6
2017-May-16 19:00N 43°51' W 001°58'19 8.1
2017-May-16 16:40N 43°34' W 002°11'210.1
2017-May-16 16:29N 43°33' W 002°11'510.1
2017-May-16 15:57N 43°27' W 002°11'510.2
2017-May-16 15:30N 43°23' W 002°12'4 8.9
2017-May-16 15:00N 43°18' W 002°12'0 0.1
2017-May-16 13:57N 43°18' W 002°12'0 0.0
2017-May-16 13:30N 43°18' W 002°12'0 0.4
2017-May-16 13:00N 43°18' W 002°12'1210.7
2017-May-16 11:52N 43°30' W 002°14'410.7
2017-May-16 11:30N 43°34' W 002°14'510.6
2017-May-16 11:00N 43°40' W 002°15'510.4
2017-May-16 10:30N 43°45' W 002°15'1110.3
2017-May-16 09:28N 43°55' W 002°16'510.1
2017-May-16 08:59N 44°00' W 002°17'1 0.4
2017-May-16 07:52N 44°00' W 002°16'0 0.5
2017-May-16 07:31N 43°60' W 002°16'0 0.5
2017-May-16 07:01N 43°60' W 002°16'2 4.0
2017-May-16 06:29N 44°02' W 002°16'0 0.5
2017-May-16 06:00N 44°01' W 002°16'6 8.2
2017-May-16 05:16N 44°01' W 002°08'0 0.4
2017-May-16 04:50N 44°01' W 002°08'1 1.0
2017-May-16 04:09N 44°02' W 002°08'1 0.4
2017-May-16 01:42N 44°03' W 002°08'2810.5
2017-May-15 23:03N 43°52' W 002°44'111.3
2017-May-15 22:56N 43°51' W 002°45'511.2
2017-May-15 22:30N 43°49' W 002°51'611.1
2017-May-15 22:00N 43°46' W 002°58'611.0
2017-May-15 21:28N 43°43' W 003°05'  
Track history (hours):
 
Tides and Currents Weather Stations Pressure Air Temp Water Temp Dewpoint Dewpoint Depression Visibility Wind Speed Wind Dir Waves Ship Positions

F/V Berriz Patxiku

Last reported at 2017-May-23 01:00 UTC. Time now 2017-May-23 01:09 UTC.
Position N 43°60' W 001°53'.

Length 30 m.

Type: Fishing. MMSI: 224106260.

Date/timePositionNaut miles runAvg speedWind from/ knotsBaromVisibWave heightAir tempDewpointWater temp
2017-May-23 01:00N 43°60' W 001°53'9 8.4
2017-May-22 23:59N 44°07' W 001°59'  
2017-May-17 12:13N 43°18' W 002°12'0 0.0
2017-May-17 11:57N 43°18' W 002°12'12 9.7
2017-May-17 10:42N 43°30' W 002°11'310.8
2017-May-17 10:28N 43°33' W 002°11'610.9
2017-May-17 09:54N 43°39' W 002°10'410.7
2017-May-17 09:30N 43°43' W 002°10'510.7
2017-May-17 09:00N 43°49' W 002°09'610.9
2017-May-17 08:29N 43°54' W 002°09'511.0
2017-May-17 08:00N 43°60' W 002°08'611.0
2017-May-17 07:30N 44°05' W 002°08'511.0
2017-May-17 07:00N 44°11' W 002°08'4 6.4
2017-May-17 06:22N 44°15' W 002°08'0 0.6
2017-May-17 06:00N 44°15' W 002°08'0 0.6
2017-May-17 05:29N 44°15' W 002°08'0 0.7
2017-May-17 05:00N 44°15' W 002°09'1 1.6
2017-May-17 04:31N 44°14' W 002°08'10 4.9
2017-May-17 02:24N 44°04' W 002°12'3 8.6
2017-May-17 02:00N 44°01' W 002°14'8 2.8
2017-May-16 23:12N 43°53' W 002°11'0 0.1
2017-May-16 23:00N 43°54' W 002°11'0 0.2
2017-May-16 22:02N 43°54' W 002°11'0 0.2
2017-May-16 21:55N 43°54' W 002°11'0 0.4
2017-May-16 21:29N 43°54' W 002°11'10 7.4
2017-May-16 20:12N 43°51' W 001°59'1 1.8
2017-May-16 19:39N 43°51' W 001°58'0 0.5
2017-May-16 19:24N 43°51' W 001°57'0 0.6
2017-May-16 19:00N 43°51' W 001°58'19 8.1
2017-May-16 16:40N 43°34' W 002°11'210.1
2017-May-16 16:29N 43°33' W 002°11'510.1
2017-May-16 15:57N 43°27' W 002°11'510.2
2017-May-16 15:30N 43°23' W 002°12'4 8.9
2017-May-16 15:00N 43°18' W 002°12'0 0.1
2017-May-16 13:57N 43°18' W 002°12'0 0.0
2017-May-16 13:30N 43°18' W 002°12'0 0.4
2017-May-16 13:00N 43°18' W 002°12'1210.7
2017-May-16 11:52N 43°30' W 002°14'410.7
2017-May-16 11:30N 43°34' W 002°14'510.6
2017-May-16 11:00N 43°40' W 002°15'510.4
2017-May-16 10:30N 43°45' W 002°15'1110.3
2017-May-16 09:28N 43°55' W 002°16'510.1
2017-May-16 08:59N 44°00' W 002°17'1 0.4
2017-May-16 07:52N 44°00' W 002°16'0 0.5
2017-May-16 07:31N 43°60' W 002°16'0 0.5
2017-May-16 07:01N 43°60' W 002°16'2 4.0
2017-May-16 06:29N 44°02' W 002°16'0 0.5
2017-May-16 06:00N 44°01' W 002°16'6 8.2
2017-May-16 05:16N 44°01' W 002°08'0 0.4
2017-May-16 04:50N 44°01' W 002°08'1 1.0
2017-May-16 04:09N 44°02' W 002°08'1 0.4
2017-May-16 01:42N 44°03' W 002°08'2810.5
2017-May-15 23:03N 43°52' W 002°44'111.3
2017-May-15 22:56N 43°51' W 002°45'511.2
2017-May-15 22:30N 43°49' W 002°51'611.1
2017-May-15 22:00N 43°46' W 002°58'611.0
2017-May-15 21:28N 43°43' W 003°05'  

Dump ship's entire track history